Time;durP1;ratioP1;P1;durP2;ratioP2;P2;SDS_P1;SDS_P2;PMS_P1;PMS_P2;Temp;Humidity;BMP_temperature;BMP_pressure;BME280_temperature;BME280_humidity;BME280_pressure;Samples;Min_cycle;Max_cycle;Signal;HPM_P1;HPM_P2
2021/11/01 00:01:37;;;;;;;0.20;0.20;;;11.20;99.90;;;;;;5014790;28;20022;-78
2021/11/01 00:04:04;;;;;;;0.10;0.10;;;11.20;99.90;;;;;;5013118;28;20026;-78
2021/11/01 00:06:30;;;;;;;1.15;0.20;;;11.20;99.90;;;;;;5013034;28;20466;-78
2021/11/01 00:08:57;;;;;;;0.20;0.20;;;11.20;99.90;;;;;;5012685;28;20041;-78
2021/11/01 00:11:23;;;;;;;0.20;0.20;;;11.20;99.90;;;;;;5013807;28;20018;-78
2021/11/01 00:13:49;;;;;;;0.28;0.20;;;11.20;99.90;;;;;;5014540;28;20044;-78
2021/11/01 00:16:14;;;;;;;0.20;0.20;;;11.10;99.90;;;;;;5014713;28;20025;-78
2021/11/01 00:18:41;;;;;;;0.20;0.20;;;11.20;99.90;;;;;;5012763;28;20424;-78
2021/11/01 00:21:07;;;;;;;0.20;0.20;;;11.10;99.90;;;;;;5013858;28;20037;-78
2021/11/01 00:23:32;;;;;;;0.20;0.20;;;11.10;99.90;;;;;;5012557;28;20385;-78
2021/11/01 00:25:58;;;;;;;0.20;0.20;;;11.10;99.90;;;;;;5013795;28;20018;-78
2021/11/01 00:28:24;;;;;;;0.10;0.10;;;11.10;99.90;;;;;;5013399;28;20038;-78
2021/11/01 00:30:50;;;;;;;0.20;0.20;;;11.10;99.90;;;;;;5013678;28;20058;-78
2021/11/01 00:33:16;;;;;;;0.20;0.20;;;11.10;99.90;;;;;;5012694;28;20053;-78
2021/11/01 00:35:41;;;;;;;0.20;0.20;;;11.10;99.90;;;;;;5012585;28;20061;-78
2021/11/01 00:38:07;;;;;;;0.10;0.10;;;11.10;99.90;;;;;;5013584;28;20065;-78
2021/11/01 00:40:33;;;;;;;0.20;0.20;;;11.10;99.90;;;;;;5013655;28;20026;-78
2021/11/01 00:43:03;;;;;;;0.10;0.10;;;11.00;99.90;;;;;;5013274;28;20018;-76
2021/11/01 00:45:29;;;;;;;0.20;0.20;;;11.00;99.90;;;;;;5012289;28;20107;-76
2021/11/01 00:47:55;;;;;;;0.30;0.20;;;11.00;99.90;;;;;;5013156;28;20026;-77
2021/11/01 00:50:21;;;;;;;0.20;0.20;;;11.00;99.90;;;;;;5012225;28;20021;-78
2021/11/01 00:52:46;;;;;;;0.20;0.20;;;11.00;99.90;;;;;;5013461;28;20018;-77
2021/11/01 00:55:21;;;;;;;0.20;0.20;;;11.00;99.90;;;;;;5013405;28;20018;-77
2021/11/01 00:57:47;;;;;;;0.20;0.20;;;10.90;99.90;;;;;;5013433;28;20100;-77
2021/11/01 01:00:13;;;;;;;0.63;0.20;;;10.90;99.90;;;;;;5011992;28;20022;-76
2021/11/01 01:02:39;;;;;;;0.20;0.20;;;11.00;99.90;;;;;;5012723;28;20029;-76
2021/11/01 01:05:05;;;;;;;0.30;0.30;;;10.90;99.90;;;;;;5012137;28;20029;-76
2021/11/01 01:07:32;;;;;;;0.10;0.10;;;10.90;99.90;;;;;;5011608;28;20188;-76
2021/11/01 01:09:58;;;;;;;0.25;0.25;;;10.90;99.90;;;;;;5011900;28;20064;-76
2021/11/01 01:12:24;;;;;;;0.20;0.20;;;10.90;99.90;;;;;;5011928;28;20122;-77
2021/11/01 01:14:59;;;;;;;0.20;0.20;;;10.90;99.90;;;;;;5012170;28;20112;-76
2021/11/01 01:17:26;;;;;;;0.20;0.20;;;10.90;99.90;;;;;;5012200;28;20030;-76
2021/11/01 01:20:05;;;;;;;0.10;0.10;;;10.90;99.90;;;;;;5011923;28;20390;-76
2021/11/01 01:22:31;;;;;;;0.25;0.25;;;10.90;99.90;;;;;;5013213;28;20049;-78
2021/11/01 01:25:00;;;;;;;0.20;0.20;;;10.80;99.90;;;;;;5012069;28;20064;-77
2021/11/01 01:27:26;;;;;;;0.20;0.20;;;10.80;99.90;;;;;;5011872;28;20032;-77
2021/11/01 01:29:52;;;;;;;0.20;0.20;;;10.80;99.90;;;;;;5012105;28;20141;-77
2021/11/01 01:32:18;;;;;;;0.20;0.20;;;10.80;99.90;;;;;;5011504;28;20121;-78
2021/11/01 01:34:43;;;;;;;0.20;0.20;;;10.80;99.90;;;;;;5013290;28;20087;-77
2021/11/01 01:37:09;;;;;;;0.17;0.13;;;10.80;99.90;;;;;;5012417;28;20018;-77
2021/11/01 01:39:35;;;;;;;0.20;0.20;;;10.80;99.90;;;;;;5012525;28;20287;-76
2021/11/01 01:42:00;;;;;;;0.20;0.20;;;10.70;99.90;;;;;;5012867;28;20022;-77
2021/11/01 01:44:26;;;;;;;0.20;0.20;;;10.80;99.90;;;;;;5011581;28;20020;-77
2021/11/01 01:46:52;;;;;;;0.10;0.10;;;10.70;99.90;;;;;;5013383;28;20120;-76
2021/11/01 01:49:19;;;;;;;0.20;0.20;;;10.80;99.90;;;;;;5015125;28;20496;-77
2021/11/01 01:51:45;;;;;;;0.20;0.20;;;10.80;99.90;;;;;;5015715;28;20080;-77
2021/11/01 01:54:11;;;;;;;0.22;0.20;;;10.70;99.90;;;;;;5016352;28;20458;-77
2021/11/01 01:56:37;;;;;;;0.10;0.10;;;10.70;99.90;;;;;;5016662;28;20018;-77
2021/11/01 01:59:05;;;;;;;0.10;0.10;;;10.80;99.90;;;;;;5015233;28;20033;-77
2021/11/01 02:01:31;;;;;;;0.20;0.20;;;10.70;99.90;;;;;;5015550;28;20434;-77
2021/11/01 02:03:58;;;;;;;0.20;0.20;;;10.70;99.90;;;;;;5015187;28;20385;-77
2021/11/01 02:06:30;;;;;;;0.20;0.20;;;10.70;99.90;;;;;;5015146;28;20417;-76
2021/11/01 02:09:13;;;;;;;0.28;0.20;;;10.70;99.90;;;;;;5015164;28;20068;-77
2021/11/01 02:12:08;;;;;;;0.10;0.10;;;10.70;99.90;;;;;;5016558;28;20485;-77
2021/11/01 02:15:18;;;;;;;0.15;0.15;;;10.70;99.90;;;;;;5016403;28;20022;-77
2021/11/01 02:17:47;;;;;;;0.20;0.20;;;10.60;99.90;;;;;;5012748;28;20477;-77
2021/11/01 02:20:27;;;;;;;0.30;0.30;;;10.60;99.90;;;;;;5015645;28;20026;-76
2021/11/01 02:23:27;;;;;;;0.20;0.20;;;10.60;99.90;;;;;;5015184;28;20076;-77
2021/11/01 02:26:01;;;;;;;0.20;0.20;;;10.60;99.90;;;;;;5004411;28;20057;-76
2021/11/01 02:28:34;;;;;;;0.10;0.10;;;10.60;99.90;;;;;;5015941;28;20026;-76
2021/11/01 02:31:00;;;;;;;0.43;0.30;;;10.60;99.90;;;;;;5014973;28;20053;-76
2021/11/01 02:33:27;;;;;;;0.25;0.20;;;10.60;99.90;;;;;;5015747;28;20034;-77
2021/11/01 02:35:54;;;;;;;0.30;0.30;;;10.60;99.90;;;;;;5015942;28;20034;-77
2021/11/01 02:38:24;;;;;;;0.20;0.20;;;10.60;99.90;;;;;;5014760;28;20312;-76
2021/11/01 02:40:51;;;;;;;0.20;0.20;;;10.50;99.90;;;;;;5016466;28;20103;-77
2021/11/01 02:43:17;;;;;;;0.55;0.30;;;10.50;99.90;;;;;;5015431;28;20054;-76
2021/11/01 02:45:44;;;;;;;0.38;0.25;;;10.50;99.90;;;;;;5016275;28;20450;-76
2021/11/01 02:48:10;;;;;;;0.20;0.20;;;10.50;99.90;;;;;;5014198;28;20478;-77
2021/11/01 02:50:37;;;;;;;0.20;0.20;;;10.50;99.90;;;;;;5014023;28;20022;-77
2021/11/01 02:53:03;;;;;;;0.20;0.20;;;10.50;99.90;;;;;;5014360;28;20022;-77
2021/11/01 02:55:29;;;;;;;0.20;0.20;;;10.50;99.90;;;;;;5015345;28;20036;-77
2021/11/01 02:57:55;;;;;;;1.33;0.40;;;10.50;99.90;;;;;;5015067;28;20055;-77
2021/11/01 03:00:28;;;;;;;0.20;0.20;;;10.50;99.90;;;;;;5015240;28;20030;-77
2021/11/01 03:02:54;;;;;;;0.20;0.20;;;10.50;99.90;;;;;;5015486;28;20018;-77
2021/11/01 03:05:24;;;;;;;0.20;0.20;;;10.50;99.90;;;;;;5013963;28;20026;-78
2021/11/01 03:07:52;;;;;;;0.20;0.20;;;10.50;99.90;;;;;;5013946;28;20121;-78
2021/11/01 03:10:19;;;;;;;0.20;0.20;;;10.50;99.90;;;;;;5015706;28;20026;-78
2021/11/01 03:12:48;;;;;;;0.20;0.20;;;10.50;99.90;;;;;;5015738;28;20357;-78
2021/11/01 03:15:24;;;;;;;0.20;0.20;;;10.50;99.90;;;;;;5015402;28;20026;-77
2021/11/01 03:17:57;;;;;;;0.40;0.20;;;10.50;99.90;;;;;;5013940;28;20034;-78
2021/11/01 03:20:30;;;;;;;0.20;0.20;;;10.50;99.90;;;;;;5014428;28;20021;-78
2021/11/01 03:23:01;;;;;;;0.20;0.20;;;10.50;99.90;;;;;;5015532;28;20034;-77
2021/11/01 03:25:32;;;;;;;0.20;0.20;;;10.50;99.90;;;;;;5013411;28;20128;-77
2021/11/01 03:28:01;;;;;;;0.20;0.20;;;10.50;99.90;;;;;;5013861;28;20038;-77
2021/11/01 03:30:28;;;;;;;0.20;0.20;;;10.50;99.90;;;;;;5013250;28;20108;-78
2021/11/01 03:32:55;;;;;;;0.20;0.20;;;10.40;99.90;;;;;;5013621;28;20022;-77
2021/11/01 03:35:22;;;;;;;0.20;0.20;;;10.40;99.90;;;;;;5013400;28;20018;-76
2021/11/01 03:37:52;;;;;;;0.20;0.20;;;10.40;99.90;;;;;;5014773;28;20034;-76
2021/11/01 03:40:20;;;;;;;0.20;0.20;;;10.40;99.90;;;;;;5015209;28;20556;-77
2021/11/01 03:42:47;;;;;;;0.20;0.20;;;10.40;99.90;;;;;;5014687;28;20057;-76
2021/11/01 03:45:13;;;;;;;0.10;0.10;;;10.40;99.90;;;;;;5013231;28;20374;-77
2021/11/01 03:47:46;;;;;;;0.20;0.20;;;10.40;99.90;;;;;;5013125;28;20370;-78
2021/11/01 03:50:58;;;;;;;0.20;0.20;;;10.40;99.90;;;;;;5014901;28;20087;-77
2021/11/01 03:53:01;;;;;;;0.20;0.20;;;10.40;99.90;;;;;;5008741;28;20022;-77
2021/11/01 03:55:29;;;;;;;0.20;0.20;;;10.40;99.90;;;;;;5014433;28;20149;-76
2021/11/01 03:57:58;;;;;;;0.10;0.10;;;10.40;99.90;;;;;;5012991;28;20026;-77
2021/11/01 04:00:27;;;;;;;0.20;0.20;;;10.40;99.90;;;;;;5012922;28;20029;-77
2021/11/01 04:02:54;;;;;;;0.20;0.20;;;10.40;99.90;;;;;;5014332;28;20033;-77
2021/11/01 04:05:20;;;;;;;0.20;0.20;;;10.40;99.90;;;;;;5014721;28;20105;-77
2021/11/01 04:07:46;;;;;;;0.20;0.20;;;10.40;99.90;;;;;;5012838;28;20121;-77
2021/11/01 04:10:14;;;;;;;0.13;0.13;;;10.40;99.90;;;;;;5013405;28;20385;-77
2021/11/01 04:12:41;;;;;;;0.13;0.13;;;10.40;99.90;;;;;;5014179;28;20441;-77
2021/11/01 04:15:28;;;;;;;0.20;0.20;;;10.40;99.90;;;;;;5013787;28;20450;-76
2021/11/01 04:17:59;;;;;;;0.20;0.20;;;10.40;99.90;;;;;;5013604;28;20030;-76
2021/11/01 04:20:33;;;;;;;0.20;0.20;;;10.40;99.90;;;;;;5014466;28;20018;-76
2021/11/01 04:23:12;;;;;;;0.20;0.20;;;10.40;99.90;;;;;;5014135;28;20052;-76
2021/11/01 04:25:38;;;;;;;0.22;0.20;;;10.40;99.90;;;;;;5013878;28;20029;-76
2021/11/01 04:28:04;;;;;;;0.20;0.20;;;10.40;99.90;;;;;;5013759;28;20034;-77
2021/11/01 04:30:38;;;;;;;0.20;0.20;;;10.40;99.90;;;;;;5012419;28;20068;-77
2021/11/01 04:33:05;;;;;;;0.35;0.20;;;10.40;99.90;;;;;;5014935;28;20371;-77
2021/11/01 04:35:38;;;;;;;0.75;0.20;;;10.40;99.90;;;;;;5012431;28;20030;-76
2021/11/01 04:40:54;;;;;;;0.25;0.25;;;10.50;99.90;;;;;;5013761;28;20018;-77
2021/11/01 04:43:38;;;;;;;0.20;0.20;;;10.50;99.90;;;;;;5014070;28;20022;-77
2021/11/01 04:54:16;;;;;;;0.35;0.20;;;10.40;99.90;;;;;;5013174;28;20080;-77
2021/11/01 04:56:44;;;;;;;0.20;0.20;;;10.40;99.90;;;;;;5011799;28;20019;-78
2021/11/01 04:59:10;;;;;;;0.25;0.25;;;10.40;99.90;;;;;;5011833;28;20022;-78
2021/11/01 05:01:49;;;;;;;0.30;0.30;;;10.40;99.90;;;;;;5013127;28;20084;-77
2021/11/01 05:04:22;;;;;;;0.20;0.20;;;10.30;99.90;;;;;;5012120;28;20050;-79
2021/11/01 05:07:08;;;;;;;0.10;0.10;;;10.30;99.90;;;;;;5013049;28;20025;-78
2021/11/01 05:09:38;;;;;;;0.30;0.30;;;10.30;99.90;;;;;;5012200;28;20030;-78
2021/11/01 05:12:19;;;;;;;0.28;0.28;;;10.30;99.90;;;;;;5013400;28;20089;-78
2021/11/01 05:17:24;;;;;;;0.30;0.30;;;10.30;99.90;;;;;;5013210;28;20100;-78
2021/11/01 05:22:30;;;;;;;0.20;0.20;;;10.30;99.90;;;;;;5014218;28;20462;-77
2021/11/01 05:25:01;;;;;;;0.30;0.30;;;10.30;99.90;;;;;;5016019;28;20125;-78
2021/11/01 05:28:41;;;;;;;;;;;10.30;99.90;;;;;;5016956;28;20393;-78
2021/11/01 05:30:38;;;;;;;0.20;0.20;;;10.30;99.90;;;;;;5007548;28;19910;-76
2021/11/01 05:35:40;;;;;;;0.20;0.20;;;10.30;99.90;;;;;;5017568;28;20360;-79
2021/11/01 05:38:07;;;;;;;0.20;0.20;;;10.20;99.90;;;;;;5015693;28;20092;-79
2021/11/01 05:40:34;;;;;;;0.20;0.20;;;10.20;99.90;;;;;;5017240;28;20040;-75
2021/11/01 05:43:00;;;;;;;0.20;0.20;;;10.30;99.90;;;;;;5016741;28;20026;-78
2021/11/01 05:45:27;;;;;;;0.32;0.20;;;10.30;99.90;;;;;;5016782;28;20109;-78
2021/11/01 05:48:02;;;;;;;0.65;0.20;;;10.30;99.90;;;;;;5015646;28;20030;-76
2021/11/01 05:50:31;;;;;;;0.20;0.20;;;10.20;99.90;;;;;;5015603;28;20018;-75
2021/11/01 05:52:59;;;;;;;0.20;0.20;;;10.20;99.90;;;;;;5016962;28;20045;-77
2021/11/01 06:03:37;;;;;;;0.13;0.13;;;10.20;99.90;;;;;;4986488;28;20030;-76
2021/11/01 06:13:55;;;;;;;0.20;0.20;;;10.30;99.90;;;;;;5016246;28;20030;-75
2021/11/01 06:16:22;;;;;;;0.17;0.17;;;10.20;99.90;;;;;;5017052;28;20030;-75
2021/11/01 06:18:49;;;;;;;0.20;0.20;;;10.20;99.90;;;;;;5016579;28;20029;-75
2021/11/01 06:21:17;;;;;;;0.20;0.20;;;10.30;99.90;;;;;;5016132;28;20462;-75
2021/11/01 06:23:50;;;;;;;0.20;0.20;;;10.30;99.90;;;;;;5014654;28;20033;-75
2021/11/01 06:26:17;;;;;;;0.20;0.20;;;10.30;99.90;;;;;;5016574;28;20156;-75
2021/11/01 06:28:44;;;;;;;0.20;0.20;;;10.30;99.90;;;;;;5014496;28;20032;-75
2021/11/01 06:31:15;;;;;;;0.20;0.20;;;10.30;99.90;;;;;;5015968;28;20054;-75
2021/11/01 06:33:55;;;;;;;0.93;0.20;;;10.40;99.90;;;;;;5014410;28;20029;-77
2021/11/01 06:39:28;;;;;;;0.20;0.20;;;10.50;99.90;;;;;;5015929;28;20063;-75
2021/11/01 06:42:16;;;;;;;0.20;0.20;;;10.50;99.90;;;;;;5015303;28;20358;-75
2021/11/01 06:44:50;;;;;;;0.45;0.20;;;10.60;99.90;;;;;;5016323;28;20438;-75
2021/11/01 07:17:20;;;;;;;0.20;0.20;;;10.70;99.90;;;;;;5015625;28;20116;-77
2021/11/01 07:24:45;;;;;;;0.20;0.20;;;10.60;99.90;;;;;;5015581;28;20030;-77
2021/11/01 08:35:56;;;;;;;0.68;0.30;;;11.20;99.90;;;;;;5013959;28;20040;-75
2021/11/01 09:23:37;;;;;;;;;;;11.80;99.40;;;;;;4997858;28;20042;-76
2021/11/01 09:26:13;;;;;;;4.75;2.40;;;11.70;99.40;;;;;;5012987;28;19906;-77
2021/11/01 09:28:45;;;;;;;5.93;2.47;;;11.70;99.30;;;;;;5012536;28;20033;-77
2021/11/01 09:36:51;;;;;;;6.97;2.10;;;11.90;98.80;;;;;;5013443;28;20104;-77
2021/11/01 09:41:56;;;;;;;12.30;2.67;;;11.90;98.70;;;;;;5013021;28;20062;-75
2021/11/01 09:44:25;;;;;;;7.72;2.30;;;11.90;98.70;;;;;;5011531;28;20033;-75
2021/11/01 09:46:59;;;;;;;7.78;2.70;;;12.00;98.70;;;;;;5011552;28;20037;-75
2021/11/01 09:49:44;;;;;;;4.32;2.13;;;12.00;98.50;;;;;;5011877;28;20030;-75
2021/11/01 09:52:12;;;;;;;7.68;2.17;;;12.00;98.20;;;;;;5013387;28;20459;-75
2021/11/01 09:54:38;;;;;;;7.20;2.60;;;12.10;98.40;;;;;;5011317;28;20021;-76
2021/11/01 09:57:28;;;;;;;4.90;2.20;;;12.20;98.20;;;;;;5012445;28;20378;-75
2021/11/01 09:59:54;;;;;;;6.40;1.85;;;12.10;97.90;;;;;;5011613;28;20037;-75
2021/11/01 10:02:21;;;;;;;5.10;1.73;;;12.00;98.10;;;;;;5012938;28;20018;-75
2021/11/01 10:04:50;;;;;;;4.53;1.90;;;11.90;98.10;;;;;;5012950;28;20038;-76
2021/11/01 10:10:04;;;;;;;4.03;1.60;;;11.90;98.10;;;;;;5015433;28;20045;-75
2021/11/01 10:12:34;;;;;;;5.63;2.30;;;11.90;97.80;;;;;;5015995;28;20386;-76
2021/11/01 10:17:55;;;;;;;8.20;1.70;;;12.00;97.40;;;;;;5016046;28;20040;-76
2021/11/01 10:20:21;;;;;;;3.03;1.40;;;12.00;97.20;;;;;;5016219;28;20458;-75
2021/11/01 10:22:47;;;;;;;3.65;1.50;;;12.00;96.90;;;;;;5016197;28;20036;-75
2021/11/01 10:25:21;;;;;;;9.93;1.58;;;12.00;96.80;;;;;;5015440;28;20374;-75
2021/11/01 10:27:59;;;;;;;4.72;1.58;;;12.00;96.60;;;;;;5015372;28;20338;-76
2021/11/01 10:30:30;;;;;;;5.00;1.70;;;11.90;96.30;;;;;;5014638;28;20206;-75
2021/11/01 10:33:01;;;;;;;3.40;1.30;;;11.90;96.60;;;;;;5013909;28;20056;-75
2021/11/01 10:35:36;;;;;;;1.83;1.40;;;12.00;96.60;;;;;;5014708;28;20026;-76
2021/11/01 10:38:21;;;;;;;6.20;1.45;;;12.00;96.60;;;;;;5015739;28;20029;-75
2021/11/01 10:47:24;;;;;;;2.50;1.20;;;12.60;96.30;;;;;;5016278;28;20477;-76
2021/11/01 11:23:00;;;;;;;3.00;0.93;;;13.60;93.60;;;;;;5015722;28;20041;-76
2021/11/01 11:31:40;;;;;;;3.03;0.98;;;14.10;93.40;;;;;;4983758;28;20057;-76
2021/11/01 11:48:07;;;;;;;2.92;1.25;;;13.80;93.00;;;;;;5014610;28;20064;-76
2021/11/01 11:50:34;;;;;;;3.38;1.00;;;13.80;92.60;;;;;;5014786;28;20042;-76
2021/11/01 11:53:24;;;;;;;3.22;0.95;;;13.70;92.30;;;;;;5014325;28;20018;-75
2021/11/01 11:56:09;;;;;;;2.10;0.85;;;13.60;92.80;;;;;;5013724;28;20022;-75
2021/11/01 11:58:48;;;;;;;1.95;0.98;;;13.50;92.40;;;;;;5014896;28;20029;-75
2021/11/01 12:01:28;;;;;;;2.58;1.10;;;13.50;92.30;;;;;;5013042;28;20086;-75
2021/11/01 12:03:58;;;;;;;2.35;0.80;;;13.50;92.60;;;;;;5014204;28;20030;-75
2021/11/01 12:06:48;;;;;;;3.65;1.00;;;13.50;92.50;;;;;;5013964;28;20033;-76
2021/11/01 12:09:21;;;;;;;4.53;1.05;;;13.50;92.90;;;;;;5014603;28;20022;-75
2021/11/01 12:17:32;;;;;;;2.45;0.82;;;13.70;91.60;;;;;;4993179;28;20029;-75
2021/11/01 12:20:07;;;;;;;2.35;1.00;;;13.70;91.60;;;;;;5014045;28;20461;-75
2021/11/01 12:22:36;;;;;;;2.88;1.20;;;13.80;91.70;;;;;;5014502;28;20029;-75
2021/11/01 12:25:07;;;;;;;3.47;0.88;;;13.90;91.30;;;;;;5013731;28;20147;-75
2021/11/01 12:27:38;;;;;;;4.00;1.35;;;14.00;91.20;;;;;;5012737;28;20053;-75
2021/11/01 12:30:08;;;;;;;2.80;1.13;;;13.90;91.20;;;;;;5012361;28;20489;-75
2021/11/01 12:32:37;;;;;;;4.55;1.20;;;13.90;90.60;;;;;;5013028;28;20394;-76
2021/11/01 12:37:36;;;;;;;4.05;1.00;;;13.90;90.40;;;;;;5013639;28;20030;-76
2021/11/01 12:40:24;;;;;;;2.08;0.77;;;13.90;90.70;;;;;;5013156;28;20038;-76
2021/11/01 12:57:01;;;;;;;3.63;1.00;;;13.80;90.80;;;;;;5014124;28;20110;-75
2021/11/01 12:59:43;;;;;;;4.03;1.00;;;13.70;91.10;;;;;;5012407;28;20026;-76
2021/11/01 13:02:26;;;;;;;3.05;1.13;;;13.70;90.70;;;;;;5013360;28;20018;-75
2021/11/01 13:04:52;;;;;;;3.97;0.85;;;13.60;90.70;;;;;;5011748;28;20072;-75
2021/11/01 13:07:46;;;;;;;3.10;0.80;;;13.60;90.40;;;;;;5012978;28;20026;-75
2021/11/01 13:10:40;;;;;;;1.58;0.70;;;13.60;90.60;;;;;;5011935;28;20033;-75
2021/11/01 13:19:15;;;;;;;2.28;0.70;;;13.70;88.90;;;;;;5013698;28;20049;-75
2021/11/01 13:22:32;;;;;;;1.73;0.75;;;13.60;89.60;;;;;;5013310;28;20015;-76
2021/11/01 13:25:08;;;;;;;1.60;0.80;;;13.60;89.50;;;;;;5007532;28;20022;-76
2021/11/01 13:35:52;;;;;;;2.90;0.82;;;13.40;90.30;;;;;;5013865;28;20397;-75
2021/11/01 13:38:29;;;;;;;1.35;0.77;;;13.30;90.40;;;;;;5013585;28;20121;-75
2021/11/01 13:40:55;;;;;;;5.13;0.90;;;13.30;90.50;;;;;;5012144;28;20437;-75
2021/11/01 13:43:29;;;;;;;2.53;0.68;;;13.30;90.30;;;;;;5013191;28;20121;-75
2021/11/01 13:46:00;;;;;;;3.95;0.98;;;13.30;90.30;;;;;;5015495;28;20133;-76
2021/11/01 13:48:31;;;;;;;0.95;0.70;;;13.30;89.50;;;;;;5017579;28;20038;-76
2021/11/01 13:51:02;;;;;;;1.17;0.60;;;13.40;88.80;;;;;;5015598;28;20087;-75
2021/11/01 13:53:33;;;;;;;3.33;0.90;;;13.40;88.70;;;;;;5015505;28;20018;-75
2021/11/01 13:56:17;;;;;;;3.67;0.88;;;13.40;88.60;;;;;;5016720;28;20053;-76
2021/11/01 13:58:55;;;;;;;1.65;0.73;;;13.40;88.70;;;;;;5017714;28;20432;-75
2021/11/01 14:36:55;;;;;;;1.52;0.68;;;13.30;88.60;;;;;;5016502;28;20061;-75
2021/11/01 15:19:40;;;;;;;2.50;0.70;;;12.90;89.60;;;;;;5015233;28;20037;-75
2021/11/01 15:22:33;;;;;;;2.80;0.82;;;12.80;89.70;;;;;;5014383;28;20063;-75
2021/11/01 16:18:57;;;;;;;2.90;0.90;;;12.50;91.50;;;;;;5015608;28;20030;-75
2021/11/01 16:21:23;;;;;;;4.95;1.08;;;12.50;91.60;;;;;;5014022;28;20386;-74
2021/11/01 16:23:49;;;;;;;2.08;0.80;;;12.40;91.70;;;;;;5012973;28;20028;-74
2021/11/01 16:26:29;;;;;;;3.70;0.80;;;12.40;91.80;;;;;;5013872;28;20417;-75
2021/11/01 16:29:12;;;;;;;1.50;0.63;;;12.30;92.00;;;;;;5014305;28;20026;-75
2021/11/01 16:31:53;;;;;;;1.85;1.00;;;12.30;92.10;;;;;;5012023;28;20053;-74
2021/11/01 16:39:25;;;;;;;3.33;1.13;;;12.30;92.20;;;;;;5012854;28;20367;-74
2021/11/01 16:41:52;;;;;;;2.05;1.10;;;12.30;92.30;;;;;;5013009;28;20017;-76
2021/11/01 16:44:24;;;;;;;1.85;0.90;;;12.20;92.40;;;;;;5011521;28;20068;-75
2021/11/01 16:46:51;;;;;;;1.20;0.75;;;12.20;92.50;;;;;;5011985;28;20018;-76
2021/11/01 16:49:19;;;;;;;1.92;0.70;;;12.20;92.60;;;;;;5012651;28;20115;-76
2021/11/01 16:51:45;;;;;;;2.70;0.98;;;12.20;92.60;;;;;;5012859;28;20025;-76
2021/11/01 16:54:15;;;;;;;2.67;0.90;;;12.20;92.70;;;;;;5011459;28;20481;-76
2021/11/01 16:59:27;;;;;;;1.30;0.85;;;12.30;92.60;;;;;;5012601;28;20044;-76
2021/11/01 17:02:04;;;;;;;3.97;1.30;;;12.30;92.60;;;;;;5013321;28;20029;-76
2021/11/01 17:04:33;;;;;;;1.42;1.00;;;12.40;92.60;;;;;;5011591;28;20357;-76
2021/11/01 17:29:07;;;;;;;0.80;0.70;;;10.80;96.00;;;;;;5007406;28;20105;-77
2021/11/01 18:51:04;;;;;;;0.93;0.88;;;10.80;99.50;;;;;;5015809;28;20064;-76
2021/11/01 18:53:36;;;;;;;2.22;0.88;;;10.80;99.60;;;;;;5015416;28;20032;-76
2021/11/01 18:56:03;;;;;;;;;;;10.70;99.60;;;;;;5015974;28;20081;-76
2021/11/01 18:58:32;;;;;;;1.30;0.60;;;10.70;99.60;;;;;;5015146;28;19992;-76
2021/11/01 19:00:58;;;;;;;2.53;0.90;;;10.70;99.60;;;;;;5013823;28;20030;-76
2021/11/01 19:03:26;;;;;;;2.53;0.98;;;10.60;99.70;;;;;;5015090;28;20030;-76
2021/11/01 19:06:16;;;;;;;1.35;0.82;;;10.60;99.90;;;;;;5013666;28;20367;-75
2021/11/01 21:26:26;;;;;;;6.55;3.15;;;9.70;99.90;;;;;;5013569;28;20101;-77
2021/11/01 21:28:52;;;;;;;6.32;3.55;;;9.60;99.90;;;;;;5012948;28;20029;-77
2021/11/01 21:31:20;;;;;;;8.30;3.92;;;9.60;99.90;;;;;;5012627;28;20442;-78
2021/11/01 21:33:50;;;;;;;7.40;3.90;;;9.60;99.90;;;;;;5013720;28;20090;-78
2021/11/01 21:36:23;;;;;;;7.05;3.63;;;9.60;99.90;;;;;;5013778;28;20028;-77
2021/11/01 21:38:54;;;;;;;8.27;3.85;;;9.60;99.90;;;;;;5011840;28;20444;-78
2021/11/01 21:41:21;;;;;;;7.85;2.85;;;9.50;99.90;;;;;;5012885;28;20481;-78
2021/11/01 21:43:47;;;;;;;6.57;3.25;;;9.60;99.90;;;;;;5012890;28;20468;-77
2021/11/01 21:46:12;;;;;;;5.13;2.83;;;9.50;99.90;;;;;;5013054;28;20022;-77
2021/11/01 21:48:38;;;;;;;5.22;2.75;;;9.50;99.90;;;;;;5012733;28;20030;-78
2021/11/01 21:51:04;;;;;;;5.82;3.13;;;9.50;99.90;;;;;;5013255;28;20416;-77
2021/11/01 21:53:31;;;;;;;5.28;2.70;;;9.50;99.90;;;;;;5011622;28;20013;-76
2021/11/01 21:55:57;;;;;;;5.97;3.30;;;9.50;99.90;;;;;;5012964;28;20068;-76
2021/11/01 22:22:38;;;;;;;3.95;2.25;;;9.40;99.90;;;;;;5016690;28;20033;-77
2021/11/01 22:25:16;;;;;;;4.20;2.08;;;9.40;99.90;;;;;;5016376;28;20025;-77
2021/11/01 22:57:24;;;;;;;4.93;2.35;;;9.50;99.90;;;;;;5016253;28;20044;-77
2021/11/01 22:59:51;;;;;;;5.78;1.95;;;9.40;99.90;;;;;;5015974;28;20112;-77
2021/11/01 23:02:17;;;;;;;4.20;2.38;;;9.40;99.90;;;;;;5014708;28;20097;-75
2021/11/01 23:31:45;;;;;;;3.33;2.03;;;9.40;99.90;;;;;;5015011;28;20483;-77
2021/11/01 23:34:14;;;;;;;4.60;2.20;;;9.40;99.90;;;;;;5014784;28;20097;-77
2021/11/01 23:36:41;;;;;;;3.47;1.92;;;9.40;99.90;;;;;;5014935;28;20014;-77
2021/11/01 23:39:09;;;;;;;5.90;2.30;;;9.40;99.90;;;;;;5013653;28;20018;-77
2021/11/01 23:41:36;;;;;;;6.40;3.13;;;9.40;99.90;;;;;;5014840;28;20034;-78
2021/11/01 23:44:01;;;;;;;5.13;1.95;;;9.40;99.90;;;;;;5014928;28;20021;-77
2021/11/01 23:46:27;;;;;;;4.28;2.30;;;9.30;99.90;;;;;;5013565;28;20010;-77
2021/11/01 23:48:53;;;;;;;4.35;2.22;;;9.30;99.90;;;;;;5013580;28;20025;-77
2021/11/01 23:51:29;;;;;;;4.47;2.20;;;9.30;99.90;;;;;;5013420;28;20369;-76
2021/11/01 23:56:33;;;;;;;5.55;2.33;;;9.20;99.90;;;;;;5014551;28;20096;-78
2021/11/01 23:58:59;;;;;;;4.82;2.40;;;9.20;99.90;;;;;;5014309;28;20022;-75
